Terminal Aerodrome Forecast
Issued by NWS North Platte, NE

Home | Current Version | Previous Version | Graphics & Text | Print | Product List | Glossary On
Versions: 1 2 3 4 5 6 7 8 9 10 11 12 13 14 15
000
FTUS43 KLBF 171100
TAFVTN
TAF
KVTN 171120Z 1712/1812 VRB03KT 1 1/2SM BR SCT150
     FM171400 VRB03KT P6SM SCT150
     FM171800 08008KT P6SM SCT120
     FM180600 12006KT P6SM SCT120 BKN200=

USA.gov is the U.S. government's official web portal to all federal, state and local government web resources and services.